createdAt,value
2023-04-23T00:00:36.371Z,1.7
2023-04-23T00:01:50.836Z,3.3
2023-04-23T00:03:05.304Z,5.2
2023-04-23T00:04:19.777Z,5.7
2023-04-23T00:05:34.291Z,3.1
2023-04-23T00:06:48.771Z,3.7
2023-04-23T00:08:03.235Z,3.3
2023-04-23T00:09:19.000Z,1.6
2023-04-23T00:10:32.111Z,4.3
2023-04-23T00:11:46.580Z,1.7
2023-04-23T00:13:01.043Z,1.4
2023-04-23T00:14:15.514Z,1.4
2023-04-23T00:15:29.111Z,3.6
2023-04-23T00:16:43.619Z,4.8
2023-04-23T00:17:58.045Z,4
2023-04-23T00:19:12.560Z,2.8
2023-04-23T00:20:26.980Z,5.2
2023-04-23T00:21:41.447Z,2.9
2023-04-23T00:22:55.926Z,1.9
2023-04-23T00:24:10.392Z,1.6
2023-04-23T00:25:24.852Z,9.5
2023-04-23T00:27:53.781Z,1.8
2023-04-23T00:29:08.243Z,2.7
2023-04-23T00:30:22.729Z,2.6
2023-04-23T00:31:37.192Z,11
2023-04-23T00:32:51.649Z,2.5
2023-04-23T00:34:07.000Z,3.2
2023-04-23T00:35:22.000Z,2
2023-04-23T00:36:34.228Z,1.7
2023-04-23T00:37:48.647Z,2.2
2023-04-23T00:39:03.114Z,1.6
2023-04-23T00:40:17.578Z,3
2023-04-23T00:41:32.048Z,2.9
2023-04-23T00:42:46.508Z,2.6
2023-04-23T00:44:02.000Z,3.7
2023-04-23T00:45:15.444Z,4.6
2023-04-23T00:46:29.924Z,1.2
2023-04-23T00:47:44.392Z,1.6
2023-04-23T00:48:58.904Z,2.6
2023-04-23T00:50:13.367Z,3.1
2023-04-23T00:52:42.250Z,6.2
2023-04-23T00:53:56.735Z,3.6
2023-04-23T00:55:10.359Z,3.5
2023-04-23T00:56:24.826Z,1.1
2023-04-23T00:57:39.241Z,2.3
2023-04-23T00:58:53.000Z,1.5
2023-04-23T01:00:08.229Z,2.7
2023-04-23T01:01:22.697Z,3.6
2023-04-23T01:02:37.164Z,2.2
2023-04-23T01:03:51.593Z,1.7
2023-04-23T01:05:06.099Z,3.6
2023-04-23T01:06:20.522Z,2.9
2023-04-23T01:07:35.034Z,3.4
2023-04-23T01:08:49.501Z,2.1
2023-04-23T01:10:03.979Z,1.4
2023-04-23T01:11:17.514Z,2.4
2023-04-23T01:12:32.030Z,2.3
2023-04-23T01:13:46.458Z,3.2
2023-04-23T01:15:00.971Z,3.4
2023-04-23T01:16:15.378Z,3.7
2023-04-23T01:17:29.897Z,2.1
2023-04-23T01:18:44.314Z,2.6
2023-04-23T01:19:58.780Z,2.9
2023-04-23T01:21:13.245Z,1.4
2023-04-23T01:22:27.723Z,4.5
2023-04-23T01:23:44.000Z,2.7
2023-04-23T01:24:56.702Z,1.7
2023-04-23T01:26:11.128Z,1.7
2023-04-23T01:27:24.770Z,1.9
2023-04-23T01:28:41.000Z,1.9
2023-04-23T01:29:55.000Z,2.1
2023-04-23T01:31:08.160Z,5.2
2023-04-23T01:32:22.594Z,1.2
2023-04-23T01:33:38.000Z,1.1
2023-04-23T01:34:50.638Z,1.6
2023-04-23T01:36:05.114Z,3.1
2023-04-23T01:37:19.571Z,3.2
2023-04-23T01:38:34.044Z,1.4
2023-04-23T01:39:48.575Z,2.4
2023-04-23T01:41:03.038Z,1.7
2023-04-23T01:42:17.507Z,1.7
2023-04-23T01:43:31.905Z,5.1
2023-04-23T01:44:46.432Z,1.4
2023-04-23T01:46:00.839Z,1.5
2023-04-23T01:47:15.367Z,3.2
2023-04-23T01:48:29.839Z,2.3
2023-04-23T01:49:44.299Z,2.1
2023-04-23T01:50:58.772Z,3
2023-04-23T01:52:13.235Z,1.4
2023-04-23T01:53:29.000Z,4.8
2023-04-23T01:54:41.237Z,2
2023-04-23T01:55:55.771Z,3.9
2023-04-23T01:57:10.182Z,3.1
2023-04-23T01:58:24.712Z,3.4
2023-04-23T01:59:39.176Z,2.9
2023-04-23T02:00:53.574Z,5
2023-04-23T02:02:08.109Z,7.8
2023-04-23T02:03:22.579Z,2.3
2023-04-23T02:04:36.978Z,2
2023-04-23T02:05:51.454Z,2.6
2023-04-23T02:07:05.968Z,2.1
2023-04-23T02:08:20.387Z,2.1
2023-04-23T02:09:34.847Z,1.3
2023-04-23T02:10:49.313Z,2.7
2023-04-23T02:12:03.789Z,1.7
2023-04-23T02:13:18.265Z,1.6
2023-04-23T02:14:32.720Z,2
2023-04-23T02:15:47.203Z,2.5
2023-04-23T02:17:01.658Z,4.1
2023-04-23T02:18:17.000Z,2.4
2023-04-23T02:19:29.712Z,2
2023-04-23T02:20:44.190Z,4
2023-04-23T02:21:58.653Z,1.7
2023-04-23T02:23:13.114Z,3.2
2023-04-23T02:24:27.580Z,2.7
2023-04-23T02:25:42.055Z,2.8
2023-04-23T02:26:56.515Z,4.1
2023-04-23T02:28:10.983Z,1.8
2023-04-23T02:29:25.456Z,2.4
2023-04-23T02:30:39.933Z,1.9
2023-04-23T02:31:54.384Z,1.1
2023-04-23T02:33:08.864Z,1.6
2023-04-23T02:34:23.321Z,1.7
2023-04-23T02:35:37.785Z,1.5
2023-04-23T02:36:52.257Z,1.3
2023-04-23T02:38:08.000Z,1.9
2023-04-23T02:39:21.197Z,2.5
2023-04-23T02:40:34.779Z,1.5
2023-04-23T02:41:49.267Z,1.8
2023-04-23T02:43:03.721Z,2.4
2023-04-23T02:44:18.180Z,1.9
2023-04-23T02:45:32.654Z,2
2023-04-23T02:46:47.118Z,1.3
2023-04-23T02:48:01.584Z,1.7
2023-04-23T02:49:16.054Z,2.3
2023-04-23T02:50:30.538Z,1.9
2023-04-23T02:51:45.000Z,2.3
2023-04-23T02:52:59.468Z,1.3
2023-04-23T02:54:13.937Z,1.9
2023-04-23T02:55:28.412Z,3.1
2023-04-23T02:56:42.862Z,2.2
2023-04-23T02:57:57.336Z,1.7
2023-04-23T02:59:10.920Z,4
2023-04-23T03:00:25.402Z,1.8
2023-04-23T03:01:39.862Z,1
2023-04-23T03:02:56.000Z,2
2023-04-23T03:04:08.802Z,2
2023-04-23T03:05:23.256Z,3.3
2023-04-23T03:06:37.723Z,3
2023-04-23T03:07:54.000Z,2.9
2023-04-23T03:09:06.665Z,1.8
2023-04-23T03:10:21.146Z,1.7
2023-04-23T03:11:35.593Z,2.4
2023-04-23T03:12:50.069Z,4.4
2023-04-23T03:14:04.543Z,3.9
2023-04-23T03:15:19.004Z,2.3
2023-04-23T03:16:33.477Z,2.3
2023-04-23T03:17:47.931Z,3.2
2023-04-23T03:19:01.535Z,2.2
2023-04-23T03:22:44.936Z,3
2023-04-23T03:23:59.408Z,2.6
2023-04-23T03:25:13.877Z,1.6
2023-04-23T03:26:28.350Z,1.4
2023-04-23T03:27:44.000Z,1.8
2023-04-23T03:28:57.268Z,3.2
2023-04-23T03:30:11.729Z,2.7
2023-04-23T03:31:26.200Z,1.8
2023-04-23T03:32:42.000Z,1.5
2023-04-23T03:33:55.140Z,1.2
2023-04-23T03:35:08.722Z,2.1
2023-04-23T03:36:23.205Z,2.1
2023-04-23T03:37:37.659Z,2
2023-04-23T03:38:52.142Z,1.2
2023-04-23T03:40:06.549Z,4.5
2023-04-23T03:41:20.966Z,5.5
2023-04-23T03:42:35.389Z,1.3
2023-04-23T03:43:49.794Z,1.9
2023-04-23T03:45:04.196Z,2.6
2023-04-23T03:46:18.612Z,2.6
2023-04-23T03:47:33.035Z,3.2
2023-04-23T03:48:47.441Z,2.4
2023-04-23T03:50:01.864Z,1.4
2023-04-23T03:51:16.272Z,1.3
2023-04-23T03:52:30.686Z,2.5
2023-04-23T03:53:44.212Z,3
2023-04-23T03:54:58.623Z,2.2
2023-04-23T03:56:13.046Z,1.6
2023-04-23T03:57:29.000Z,4.4
2023-04-23T03:58:41.869Z,2.2
2023-04-23T03:59:56.281Z,2.3
2023-04-23T04:01:10.695Z,1.9
2023-04-23T04:02:27.000Z,3.1
2023-04-23T04:03:39.527Z,2.4
2023-04-23T04:06:08.367Z,2.3
2023-04-23T04:07:22.762Z,1.8
2023-04-23T04:08:37.175Z,2.5
2023-04-23T04:11:06.002Z,1.4
2023-04-23T04:12:20.430Z,1.4
2023-04-23T04:13:34.830Z,6.1
2023-04-23T04:14:49.254Z,2.2
2023-04-23T04:16:03.669Z,3.2
2023-04-23T04:17:20.000Z,3.1
2023-04-23T04:18:32.495Z,5.8
2023-04-23T04:19:46.905Z,6
2023-04-23T04:21:01.313Z,1.4
2023-04-23T04:22:15.732Z,3
2023-04-23T04:23:30.150Z,2.1
2023-04-23T04:24:44.566Z,1.7
2023-04-23T04:25:58.978Z,1.4
2023-04-23T04:27:13.403Z,2
2023-04-23T04:28:27.812Z,2.9
2023-04-23T04:29:42.224Z,0.7
2023-04-23T04:30:56.638Z,2.1
2023-04-23T04:32:11.042Z,2.1
2023-04-23T04:33:26.000Z,3
2023-04-23T04:34:39.007Z,1.7
2023-04-23T04:35:53.402Z,2.8
2023-04-23T04:37:07.825Z,2.7
2023-04-23T04:38:22.230Z,2.2
2023-04-23T04:39:36.646Z,2.6
2023-04-23T04:40:51.063Z,2.6
2023-04-23T04:42:05.466Z,2.2
2023-04-23T04:43:19.891Z,2.3
2023-04-23T04:44:34.311Z,2.4
2023-04-23T04:45:48.708Z,1.3
2023-04-23T04:47:03.135Z,2
2023-04-23T04:48:17.540Z,2.5
2023-04-23T04:50:46.361Z,2
2023-04-23T04:52:00.784Z,2.2
2023-04-23T04:53:15.202Z,1.4
2023-04-23T04:54:29.627Z,2.1
2023-04-23T04:55:44.024Z,2.4
2023-04-23T04:56:58.446Z,5.8
2023-04-23T04:58:11.978Z,1.5
2023-04-23T04:59:26.395Z,1.7
2023-04-23T05:00:40.810Z,2.4
2023-04-23T05:01:55.209Z,6.5
2023-04-23T05:03:09.631Z,1.9
2023-04-23T05:04:24.041Z,1.5
2023-04-23T05:05:38.448Z,2.7
2023-04-23T05:06:52.880Z,2.7
2023-04-23T05:08:07.285Z,1.1
2023-04-23T05:10:36.110Z,1.5
2023-04-23T05:11:52.000Z,4.5
2023-04-23T05:13:04.930Z,5.5
2023-04-23T05:15:33.765Z,1.5
2023-04-23T05:16:48.171Z,1.7
2023-04-23T05:18:01.718Z,3.2
2023-04-23T05:20:30.548Z,4.9
2023-04-23T05:21:44.954Z,2.7
2023-04-23T05:22:58.502Z,2.9
2023-04-23T05:24:12.921Z,1.4
2023-04-23T05:25:27.352Z,2
2023-04-23T05:26:41.745Z,1.9
2023-04-23T05:27:55.301Z,4
2023-04-23T05:30:24.122Z,1.7
2023-04-23T05:31:38.520Z,3.1
2023-04-23T05:32:52.952Z,1.2
2023-04-23T05:34:07.354Z,2.6
2023-04-23T05:35:21.780Z,2
2023-04-23T05:36:38.000Z,3.2
2023-04-23T05:37:50.601Z,2.8
2023-04-23T05:39:05.011Z,3.2
2023-04-23T05:40:19.430Z,1.7
2023-04-23T05:41:33.831Z,2.5
2023-04-23T05:42:48.254Z,3
2023-04-23T05:44:01.797Z,3.3
2023-04-23T05:45:16.198Z,2.2
2023-04-23T05:46:30.615Z,2.1
2023-04-23T05:47:45.025Z,2.7
2023-04-23T05:48:59.442Z,5.8
2023-04-23T05:50:13.859Z,3.2
2023-04-23T05:51:28.267Z,3.4
2023-04-23T05:52:41.835Z,1.8
2023-04-23T05:53:55.364Z,2.1
2023-04-23T05:55:09.777Z,0.9
2023-04-23T05:56:24.198Z,3.2
2023-04-23T05:57:38.608Z,1.3
2023-04-23T05:58:53.018Z,2.5
2023-04-23T06:00:07.437Z,4
2023-04-23T06:01:23.000Z,1.6
2023-04-23T06:02:38.000Z,1.8
2023-04-23T06:03:50.672Z,5.1
2023-04-23T06:05:05.077Z,4.3
2023-04-23T06:06:19.503Z,2.3
2023-04-23T06:07:33.917Z,3.6
2023-04-23T06:08:48.329Z,2.2
2023-04-23T06:10:02.743Z,7.1
2023-04-23T06:11:16.281Z,1.3
2023-04-23T06:12:30.697Z,3.4
2023-04-23T06:13:45.110Z,2.6
2023-04-23T06:14:59.519Z,3.3
2023-04-23T06:16:15.000Z,1.7
2023-04-23T06:17:28.349Z,1
2023-04-23T06:19:57.165Z,0.8
2023-04-23T06:21:11.575Z,1
2023-04-23T06:22:26.005Z,1.4
2023-04-23T06:23:40.419Z,2
2023-04-23T06:24:54.819Z,1.8
2023-04-23T06:26:09.233Z,1.5
2023-04-23T06:27:23.657Z,1.3
2023-04-23T06:28:37.175Z,0.7
2023-04-23T06:29:53.000Z,5.7
2023-04-23T06:31:06.019Z,0.8
2023-04-23T06:32:20.427Z,0.7
2023-04-23T06:33:34.856Z,0.6
2023-04-23T06:34:49.247Z,0.7
2023-04-23T06:36:03.671Z,1.9
2023-04-23T06:37:18.078Z,0.7
2023-04-23T06:38:32.499Z,1.6
2023-04-23T06:39:46.914Z,0.8
2023-04-23T06:41:01.326Z,1.1
2023-04-23T06:42:15.727Z,1.3
2023-04-23T06:43:30.156Z,1.1
2023-04-23T06:44:44.552Z,1.3
2023-04-23T06:45:58.108Z,1.2
2023-04-23T06:47:12.509Z,0.9
2023-04-23T06:48:26.919Z,1
2023-04-23T06:49:41.331Z,1
2023-04-23T06:50:55.744Z,1
2023-04-23T06:52:10.160Z,0.9
2023-04-23T06:53:24.575Z,1.4
2023-04-23T06:54:38.994Z,1.3
2023-04-23T06:55:53.404Z,1.8
2023-04-23T06:57:07.812Z,0.9
2023-04-23T06:58:22.240Z,0.5
2023-04-23T06:59:36.637Z,2.3
2023-04-23T07:00:51.055Z,1.1
2023-04-23T07:02:05.471Z,1
2023-04-23T07:03:19.009Z,1.3
2023-04-23T07:04:33.412Z,3.7
2023-04-23T07:05:47.829Z,2.3
2023-04-23T07:07:02.241Z,2
2023-04-23T07:09:31.084Z,1.4
2023-04-23T07:10:45.484Z,1
2023-04-23T07:11:59.896Z,1.8
2023-04-23T07:13:14.324Z,1.9
2023-04-23T07:14:28.725Z,1.2
2023-04-23T07:15:43.146Z,0.8
2023-04-23T07:16:57.551Z,0.9
2023-04-23T07:19:26.391Z,0.6
2023-04-23T07:20:40.805Z,0.8
2023-04-23T07:21:55.201Z,0.9
2023-04-23T07:23:08.754Z,0.6
2023-04-23T07:24:23.152Z,1.7
2023-04-23T07:25:37.574Z,1
2023-04-23T07:26:51.981Z,0.4
2023-04-23T07:28:06.404Z,2.8
2023-04-23T07:29:20.808Z,3.1
2023-04-23T07:30:35.224Z,1.9
2023-04-23T07:31:49.638Z,0.5
2023-04-23T07:33:04.044Z,1.1
2023-04-23T07:34:18.458Z,0.7
2023-04-23T07:35:32.886Z,0.6
2023-04-23T07:36:47.301Z,1.8
2023-04-23T07:38:01.711Z,0.8
2023-04-23T07:39:15.246Z,1.4
2023-04-23T07:40:29.669Z,1.7
2023-04-23T07:41:44.063Z,1.7
2023-04-23T07:42:57.626Z,0.7
2023-04-23T07:44:11.155Z,1
2023-04-23T07:45:25.574Z,0.9
2023-04-23T07:47:54.415Z,1.9
2023-04-23T07:49:08.815Z,2.4
2023-04-23T07:50:23.248Z,1.6
2023-04-23T07:51:37.641Z,2.5
2023-04-23T07:52:52.046Z,1.3
2023-04-23T07:54:06.462Z,1.9
2023-04-23T07:55:20.873Z,1.6
2023-04-23T07:56:35.308Z,2.6
2023-04-23T07:57:49.701Z,0.6
2023-04-23T07:59:04.138Z,1.8
2023-04-23T08:00:18.531Z,1.9
2023-04-23T08:01:32.000Z,2.7
2023-04-23T08:02:47.371Z,0.8
2023-04-23T08:04:02.000Z,1.2
2023-04-23T08:05:15.315Z,0.9
2023-04-23T08:06:29.721Z,2.2
2023-04-23T08:07:44.143Z,1.2
2023-04-23T08:09:00.000Z,1.1
2023-04-23T08:10:12.971Z,0.8
2023-04-23T08:12:43.000Z,1.1
2023-04-23T08:13:58.000Z,0.4
2023-04-23T08:15:10.625Z,1.4
2023-04-23T08:16:25.037Z,0.9
2023-04-23T08:17:39.455Z,0.2
2023-04-23T08:18:53.855Z,0.7
2023-04-23T08:20:07.409Z,0.5
2023-04-23T08:22:36.226Z,2.4
2023-04-23T08:23:50.640Z,1.1
2023-04-23T08:25:05.043Z,1
2023-04-23T08:26:19.454Z,1
2023-04-23T08:27:33.885Z,0.9
2023-04-23T08:28:48.302Z,0.9
2023-04-23T08:30:02.718Z,2.9
2023-04-23T08:31:17.106Z,1.3
2023-04-23T08:32:31.539Z,1
2023-04-23T08:33:45.943Z,0.8
2023-04-23T08:35:00.349Z,2
2023-04-23T08:37:29.201Z,0.8
2023-04-23T08:38:42.732Z,1.8
2023-04-23T08:39:57.149Z,1.1
2023-04-23T08:42:25.985Z,5.5
2023-04-23T08:43:40.000Z,12.1
2023-04-23T08:44:54.813Z,18.6
2023-04-23T08:46:09.225Z,19.3
2023-04-23T08:47:23.649Z,27.4
2023-04-23T08:48:39.000Z,24.9
2023-04-23T08:49:51.586Z,53.1
2023-04-23T08:52:20.415Z,18.1
2023-04-23T08:53:34.833Z,26.1
2023-04-23T08:54:49.261Z,23.9
2023-04-23T08:56:03.649Z,27.4
2023-04-23T08:57:20.000Z,4.9
2023-04-23T08:58:31.611Z,11.2
2023-04-23T08:59:45.160Z,10.2
2023-04-23T09:00:59.568Z,15.8
2023-04-23T09:02:13.983Z,11.6
2023-04-23T09:03:28.388Z,8.3
2023-04-23T09:04:42.806Z,13.9
2023-04-23T09:05:57.215Z,10.9
2023-04-23T09:07:11.637Z,2.7
2023-04-23T09:08:26.069Z,2.8
2023-04-23T09:09:40.473Z,0.7
2023-04-23T09:10:54.882Z,0.4
2023-04-23T09:12:09.281Z,1.6
2023-04-23T09:13:22.848Z,2.3
2023-04-23T09:14:36.386Z,0.6
2023-04-23T09:15:50.813Z,3.9
2023-04-23T09:17:05.204Z,7.9
2023-04-23T09:18:19.625Z,1.1
2023-04-23T09:19:34.053Z,0.9
2023-04-23T09:22:02.872Z,0.7
2023-04-23T09:23:17.290Z,2.3
2023-04-23T09:24:31.715Z,1.6
2023-04-23T09:25:46.136Z,0.7
2023-04-23T09:27:00.523Z,4.8
2023-04-23T09:28:14.937Z,2.7
2023-04-23T09:29:29.340Z,4.1
2023-04-23T09:30:43.754Z,1.6
2023-04-23T09:33:12.588Z,2.5
2023-04-23T09:34:26.149Z,0.4
2023-04-23T09:35:40.588Z,2.3
2023-04-23T09:36:54.992Z,1.1
2023-04-23T09:38:09.372Z,2.5
2023-04-23T09:39:22.939Z,0.8
2023-04-23T09:40:37.357Z,0.7
2023-04-23T09:41:51.732Z,1.6
2023-04-23T09:43:06.164Z,0.4
2023-04-23T09:44:20.598Z,1.9
2023-04-23T09:45:34.986Z,2.8
2023-04-23T09:46:49.396Z,2.1
2023-04-23T09:48:03.837Z,3.4
2023-04-23T09:49:17.362Z,0.9
2023-04-23T09:51:46.199Z,0.7
2023-04-23T09:53:00.603Z,1.5
2023-04-23T09:54:14.160Z,1.3
2023-04-23T09:55:28.573Z,1
2023-04-23T09:56:42.971Z,1.7
2023-04-23T09:57:57.373Z,1.7
2023-04-23T09:59:11.791Z,0.4
2023-04-23T10:01:40.652Z,0.6
2023-04-23T10:02:55.028Z,0.7
2023-04-23T10:04:09.486Z,0.7
2023-04-23T10:05:23.890Z,0.7
2023-04-23T10:06:38.270Z,1
2023-04-23T10:07:52.722Z,1.3
2023-04-23T10:09:07.131Z,0.5
2023-04-23T10:10:20.642Z,0.9
2023-04-23T10:11:35.089Z,1.4
2023-04-23T10:12:49.461Z,0.8
2023-04-23T10:14:03.869Z,1.4
2023-04-23T10:15:18.285Z,1.9
2023-04-23T10:16:32.709Z,0.9
2023-04-23T10:17:46.265Z,1.2
2023-04-23T10:18:59.828Z,1.4
2023-04-23T10:20:14.233Z,0.8
2023-04-23T10:21:28.635Z,1.5
2023-04-23T10:22:43.044Z,0.4
2023-04-23T10:23:57.446Z,2
2023-04-23T10:25:11.874Z,0.7
2023-04-23T10:26:26.310Z,0.5
2023-04-23T10:27:40.720Z,0.4
2023-04-23T10:28:54.253Z,0.8
2023-04-23T10:31:22.233Z,1.1
2023-04-23T10:32:36.618Z,0.7
2023-04-23T10:33:51.035Z,1.4
2023-04-23T10:35:05.440Z,0.4
2023-04-23T10:36:19.848Z,0.6
2023-04-23T10:37:34.267Z,2.2
2023-04-23T10:38:48.676Z,0.2
2023-04-23T10:41:17.500Z,1.2
2023-04-23T10:42:31.954Z,0.2
2023-04-23T10:43:46.337Z,0.3
2023-04-23T10:46:15.194Z,1
2023-04-23T10:47:29.714Z,0.6
2023-04-23T10:48:44.130Z,0.4
2023-04-23T10:51:12.070Z,0.8
2023-04-23T10:52:26.526Z,0.9
2023-04-23T10:53:40.911Z,0.6
2023-04-23T10:54:55.317Z,0.8
2023-04-23T10:56:09.734Z,1.5
2023-04-23T10:57:24.139Z,1.3
2023-04-23T10:58:38.600Z,2.1
2023-04-23T11:02:21.843Z,0.3
2023-04-23T11:03:36.226Z,0.3
2023-04-23T11:06:04.198Z,1.2
2023-04-23T11:07:18.607Z,0.7
2023-04-23T11:08:33.032Z,0.3
2023-04-23T11:11:00.989Z,0.4
2023-04-23T11:12:15.419Z,0.8
2023-04-23T11:13:29.001Z,0.7
2023-04-23T11:15:57.799Z,0.5
2023-04-23T11:17:12.228Z,0.6
2023-04-23T11:18:26.633Z,0.6
2023-04-23T11:20:55.455Z,0.5
2023-04-23T11:22:09.003Z,0.3
2023-04-23T11:23:23.401Z,0.3
2023-04-23T11:24:37.808Z,0.9
2023-04-23T11:25:52.243Z,0.4
2023-04-23T11:27:06.633Z,1.4
2023-04-23T11:28:21.053Z,0.5
2023-04-23T11:30:49.888Z,0.2
2023-04-23T11:32:04.325Z,1.2
2023-04-23T11:33:18.711Z,0.8
2023-04-23T11:34:33.147Z,0.5
2023-04-23T11:35:47.541Z,0.6
2023-04-23T11:37:01.976Z,0.9
2023-04-23T11:38:16.370Z,0.6
2023-04-23T11:40:45.219Z,0.6
2023-04-23T11:41:58.744Z,0.6
2023-04-23T11:43:13.138Z,0.8
2023-04-23T11:44:27.563Z,0.8
2023-04-23T11:45:41.963Z,1
2023-04-23T11:46:56.381Z,0.8
2023-04-23T11:48:10.788Z,0.3
2023-04-23T11:49:25.203Z,0.5
2023-04-23T11:50:39.646Z,0.8
2023-04-23T11:51:54.065Z,0.4
2023-04-23T11:53:08.451Z,0.4
2023-04-23T11:54:22.872Z,0.5
2023-04-23T11:55:37.267Z,1
2023-04-23T11:56:51.690Z,0.9
2023-04-23T11:58:06.131Z,0.7
2023-04-23T11:59:19.651Z,0.9
2023-04-23T12:00:33.202Z,2.6
2023-04-23T12:01:47.618Z,0.8
2023-04-23T12:03:02.015Z,2.9
2023-04-23T12:04:16.443Z,1.3
2023-04-23T12:05:32.000Z,2.6
2023-04-23T12:06:45.264Z,0.6
2023-04-23T12:07:59.673Z,0.4
2023-04-23T12:09:16.000Z,3.7
2023-04-23T12:10:28.522Z,1.2
2023-04-23T12:11:42.908Z,0.3
2023-04-23T12:14:10.885Z,3.1
2023-04-23T12:15:25.304Z,1.1
2023-04-23T12:16:38.857Z,1.2
2023-04-23T12:19:07.685Z,0.2
2023-04-23T12:20:21.221Z,0.8
2023-04-23T12:21:34.747Z,0.3
2023-04-23T12:22:49.199Z,0.3
2023-04-23T12:24:03.604Z,0.2
2023-04-23T12:25:20.000Z,0.5
2023-04-23T12:26:32.398Z,2
2023-04-23T12:27:46.845Z,0.6
2023-04-23T12:29:03.000Z,2.5
2023-04-23T12:30:15.682Z,0.6
2023-04-23T12:31:30.089Z,1.4
2023-04-23T12:32:44.496Z,1.5
2023-04-23T12:33:58.888Z,0.3
2023-04-23T12:35:12.465Z,0.5
2023-04-23T12:36:28.000Z,1
2023-04-23T12:37:40.419Z,0.2
2023-04-23T12:38:54.799Z,0.2
2023-04-23T12:40:09.230Z,0.5
2023-04-23T12:41:23.637Z,0.1
2023-04-23T12:43:52.484Z,0.3
2023-04-23T12:45:06.870Z,0.7
2023-04-23T12:46:21.286Z,0.5
2023-04-23T12:48:50.108Z,0.5
2023-04-23T12:50:04.526Z,0.4
2023-04-23T12:51:18.973Z,3.7
2023-04-23T12:53:46.936Z,1.2
2023-04-23T12:55:01.339Z,0.1
2023-04-23T12:56:14.905Z,1
2023-04-23T12:57:29.323Z,0.9
2023-04-23T12:58:43.705Z,0.5
2023-04-23T12:59:58.116Z,0.3
2023-04-23T13:01:12.559Z,0.3
2023-04-23T13:02:26.108Z,0.4
2023-04-23T13:03:40.509Z,0.5
2023-04-23T13:04:57.000Z,0.6
2023-04-23T13:06:09.335Z,0.6
2023-04-23T13:07:23.759Z,0.3
2023-04-23T13:08:40.000Z,0.2
2023-04-23T13:09:52.581Z,0.3
2023-04-23T13:11:06.103Z,0.3
2023-04-23T13:12:19.642Z,0.3
2023-04-23T13:13:36.000Z,0.5
2023-04-23T13:14:50.000Z,0.5
2023-04-23T13:16:02.888Z,0.8
2023-04-23T13:17:17.335Z,1.1
2023-04-23T13:18:31.706Z,0.4
2023-04-23T13:19:46.152Z,0.5
2023-04-23T13:21:00.533Z,0.5
2023-04-23T13:22:14.964Z,0.1
2023-04-23T13:23:29.389Z,0.2
2023-04-23T13:24:42.952Z,0.5
2023-04-23T13:25:58.000Z,2.6
2023-04-23T13:28:25.318Z,0.2
2023-04-23T13:29:39.692Z,1.1
2023-04-23T13:30:54.103Z,0.5
2023-04-23T13:32:08.532Z,1.8
2023-04-23T13:33:25.000Z,0.3
2023-04-23T13:34:37.380Z,0.2
2023-04-23T13:35:51.791Z,0.8
2023-04-23T13:37:06.202Z,0.2
2023-04-23T13:38:20.618Z,1
2023-04-23T13:39:35.045Z,0.4
2023-04-23T13:40:49.430Z,0.4
2023-04-23T13:42:02.956Z,0.3
2023-04-23T13:43:17.383Z,0.1
2023-04-23T13:44:33.000Z,0.3
2023-04-23T13:45:46.206Z,1.5
2023-04-23T13:48:15.043Z,0.2
2023-04-23T13:49:28.608Z,0.2
2023-04-23T13:50:42.993Z,1.2
2023-04-23T13:51:56.567Z,0.4
2023-04-23T13:53:10.961Z,0.6
2023-04-23T13:54:25.367Z,0.9
2023-04-23T13:55:39.798Z,0.5
2023-04-23T13:56:54.219Z,0.5
2023-04-23T13:58:08.622Z,0.8
2023-04-23T13:59:23.011Z,0.4
2023-04-23T14:00:39.000Z,0.2
2023-04-23T14:01:51.851Z,0.4
2023-04-23T14:03:06.272Z,1
2023-04-23T14:04:20.664Z,0.3
2023-04-23T14:05:34.245Z,0.7
2023-04-23T14:06:48.653Z,0.4
2023-04-23T14:08:03.097Z,0.1
2023-04-23T14:09:16.602Z,0.6
2023-04-23T14:10:31.045Z,0.2
2023-04-23T14:11:45.435Z,0.5
2023-04-23T14:12:59.879Z,0.8
2023-04-23T14:14:14.266Z,0.8
2023-04-23T14:15:28.702Z,0.6
2023-04-23T14:16:43.091Z,1.5
2023-04-23T14:17:57.505Z,4
2023-04-23T14:19:14.000Z,0.4
2023-04-23T14:20:26.339Z,0.3
2023-04-23T14:21:40.769Z,2.3
2023-04-23T14:22:55.164Z,1.3
2023-04-23T14:24:09.571Z,0.2
2023-04-23T14:25:23.990Z,0.8
2023-04-23T14:26:39.000Z,1
2023-04-23T14:27:51.947Z,0.7
2023-04-23T14:29:08.000Z,0.8
2023-04-23T14:31:37.000Z,0.3
2023-04-23T14:32:49.590Z,3
2023-04-23T14:34:04.035Z,1.2
2023-04-23T14:35:18.439Z,0.6
2023-04-23T14:36:32.840Z,0.5
2023-04-23T14:37:47.247Z,0.7
2023-04-23T14:39:01.665Z,0.9
2023-04-23T14:40:16.093Z,1.9
2023-04-23T14:41:30.504Z,0.4
2023-04-23T14:42:44.045Z,0.4
2023-04-23T14:43:58.438Z,0.7
2023-04-23T14:45:12.883Z,0.3
2023-04-23T14:46:27.266Z,0.6
2023-04-23T14:47:41.708Z,0.4
2023-04-23T14:48:58.000Z,0.7
2023-04-23T14:50:10.535Z,0.1
2023-04-23T14:51:27.000Z,0.7
2023-04-23T14:52:39.364Z,0.2
2023-04-23T14:53:55.000Z,0.8
2023-04-23T14:55:08.185Z,0.4
2023-04-23T14:56:22.575Z,0.4
2023-04-23T14:57:37.008Z,0.3
2023-04-23T14:58:51.400Z,0.7
2023-04-23T15:01:19.350Z,0.7
2023-04-23T15:02:33.762Z,0.4
2023-04-23T15:03:48.201Z,0.9
2023-04-23T15:05:02.608Z,0.5
2023-04-23T15:06:17.006Z,2.2
2023-04-23T15:07:31.418Z,1.1
2023-04-23T15:08:45.845Z,0.8
2023-04-23T15:11:14.659Z,0.4
2023-04-23T15:12:29.092Z,0.6
2023-04-23T15:13:43.506Z,0.4
2023-04-23T15:14:57.932Z,0.7
2023-04-23T15:16:12.319Z,0.6
2023-04-23T15:17:25.853Z,0.4
2023-04-23T15:18:40.284Z,0.2
2023-04-23T15:19:54.691Z,0.7
2023-04-23T15:21:09.102Z,0.6
2023-04-23T15:22:23.510Z,0.9
2023-04-23T15:23:37.940Z,1.4
2023-04-23T15:26:06.753Z,0.2
2023-04-23T15:27:21.192Z,0.6
2023-04-23T15:28:35.593Z,0.5
2023-04-23T15:29:50.010Z,0.9
2023-04-23T15:31:04.418Z,0.4
2023-04-23T15:32:18.832Z,1
2023-04-23T15:33:33.237Z,0.8
2023-04-23T15:34:47.784Z,0.5
2023-04-23T15:36:04.000Z,0.8
2023-04-23T15:37:16.608Z,0.4
2023-04-23T15:38:33.000Z,0.7
2023-04-23T15:39:45.443Z,1.3
2023-04-23T15:40:59.846Z,0.8
2023-04-23T15:42:14.284Z,0.8
2023-04-23T15:43:28.684Z,0.9
2023-04-23T15:45:59.000Z,0.7
2023-04-23T15:47:11.925Z,1
2023-04-23T15:48:26.338Z,1.7
2023-04-23T15:50:55.164Z,0.7
2023-04-23T15:52:09.574Z,1.2
2023-04-23T15:53:24.114Z,0.3
2023-04-23T15:54:38.536Z,0.6
2023-04-23T15:55:52.939Z,0.3
2023-04-23T15:57:07.353Z,0.6
2023-04-23T15:58:21.763Z,0.3
2023-04-23T15:59:36.166Z,1.3
2023-04-23T16:00:50.593Z,0.4
2023-04-23T16:02:04.994Z,0.3
2023-04-23T16:03:21.000Z,0.2
2023-04-23T16:04:33.826Z,0.3
2023-04-23T16:05:48.245Z,0.4
2023-04-23T16:07:02.672Z,3.2
2023-04-23T16:08:17.078Z,0.3
2023-04-23T16:10:45.016Z,0.5
2023-04-23T16:11:58.585Z,1.8
2023-04-23T16:13:13.117Z,0.8
2023-04-23T16:14:27.527Z,0.7
2023-04-23T16:15:41.939Z,0.4
2023-04-23T16:16:56.373Z,0.4
2023-04-23T16:18:10.768Z,0.3
2023-04-23T16:19:25.184Z,0.4
2023-04-23T16:20:39.599Z,0.3
2023-04-23T16:21:54.022Z,2.5
2023-04-23T16:23:08.437Z,0.5
2023-04-23T16:24:22.851Z,1.7
2023-04-23T16:25:37.265Z,0.3
2023-04-23T16:26:51.668Z,0.2
2023-04-23T16:28:06.231Z,0.7
2023-04-23T16:29:20.653Z,1
2023-04-23T16:30:34.182Z,0.9
2023-04-23T16:31:48.588Z,0.9
2023-04-23T16:33:03.003Z,0.5
2023-04-23T16:35:31.831Z,0.6
2023-04-23T16:36:46.261Z,0.2
2023-04-23T16:38:00.666Z,0.1
2023-04-23T16:39:15.078Z,0.9
2023-04-23T16:40:29.484Z,0.3
2023-04-23T16:41:43.899Z,0.4
2023-04-23T16:42:58.317Z,0.5
2023-04-23T16:44:12.740Z,0.7
2023-04-23T16:45:27.144Z,0.3
2023-04-23T16:46:41.560Z,0.8
2023-04-23T16:47:55.970Z,0.8
2023-04-23T16:49:10.389Z,0.7
2023-04-23T16:50:26.000Z,0.4
2023-04-23T16:51:39.224Z,0.6
2023-04-23T16:52:53.618Z,0.1
2023-04-23T16:54:08.033Z,0.1
2023-04-23T16:55:24.000Z,0.3
2023-04-23T16:56:36.859Z,0.7
2023-04-23T16:57:51.289Z,0.3
2023-04-23T17:00:20.102Z,0.7
2023-04-23T17:01:33.643Z,0.4
2023-04-23T17:02:48.049Z,0.5
2023-04-23T17:04:02.481Z,1.2
2023-04-23T17:05:16.888Z,0.3
2023-04-23T17:06:31.297Z,0.5
2023-04-23T17:07:47.000Z,0.5
2023-04-23T17:09:00.129Z,0.5
2023-04-23T17:10:14.545Z,0.4
2023-04-23T17:11:28.947Z,0.6
2023-04-23T17:12:43.372Z,0.3
2023-04-23T17:15:12.188Z,0.5
2023-04-23T17:16:26.599Z,0.7
2023-04-23T17:17:41.022Z,0.8
2023-04-23T17:18:55.432Z,0.6
2023-04-23T17:20:09.847Z,0.3
2023-04-23T17:21:23.378Z,0.5
2023-04-23T17:22:37.793Z,0.7
2023-04-23T17:25:06.618Z,0.3
2023-04-23T17:27:34.594Z,0.3
2023-04-23T17:30:03.425Z,0.5
2023-04-23T17:31:17.838Z,0.4
2023-04-23T17:32:32.244Z,0.9
2023-04-23T17:35:01.071Z,0.4
2023-04-23T17:36:15.497Z,0.5
2023-04-23T17:37:29.902Z,0.6
2023-04-23T17:38:44.318Z,0.7
2023-04-23T17:39:58.732Z,0.8
2023-04-23T17:41:13.144Z,0.5
2023-04-23T17:42:27.564Z,0.7
2023-04-23T17:43:41.986Z,0.3
2023-04-23T17:44:56.383Z,0.5
2023-04-23T17:46:09.937Z,0.5
2023-04-23T17:47:24.358Z,1
2023-04-23T17:48:38.770Z,0.9
2023-04-23T17:49:53.185Z,0.3
2023-04-23T17:51:07.609Z,0.6
2023-04-23T17:52:22.019Z,0.8
2023-04-23T17:53:36.434Z,0.7
2023-04-23T17:54:50.839Z,0.2
2023-04-23T17:56:07.000Z,0.4
2023-04-23T17:57:19.671Z,0.3
2023-04-23T17:58:34.076Z,0.9
2023-04-23T17:59:48.643Z,0.6
2023-04-23T18:01:03.048Z,0.5
2023-04-23T18:02:17.468Z,0.4
2023-04-23T18:03:31.876Z,0.5
2023-04-23T18:04:46.283Z,0.5
2023-04-23T18:06:00.699Z,0.8
2023-04-23T18:07:15.112Z,0.4
2023-04-23T18:09:43.946Z,0.2
2023-04-23T18:10:57.473Z,0.6
2023-04-23T18:12:11.900Z,2.1
2023-04-23T18:13:26.314Z,0.8
2023-04-23T18:14:40.728Z,0.8
2023-04-23T18:15:54.260Z,0.7
2023-04-23T18:17:08.677Z,0.8
2023-04-23T18:18:23.081Z,1
2023-04-23T18:19:37.500Z,0.4